createdAt,value
2023-05-13T00:00:20.369Z,98412.31
2023-05-13T00:03:07.896Z,98404.88
2023-05-13T00:05:35.521Z,98404.50
2023-05-13T00:08:07.195Z,98404.28
2023-05-13T00:10:36.112Z,98404.84
2023-05-13T00:13:03.569Z,98405.56
2023-05-13T00:15:31.419Z,98406.84
2023-05-13T00:17:58.667Z,98401.38
2023-05-13T00:20:26.166Z,98401.50
2023-05-13T00:22:53.468Z,98398.50
2023-05-13T00:25:20.970Z,98409.63
2023-05-13T00:27:48.650Z,98399.94
2023-05-13T00:30:17.014Z,98410.31
2023-05-13T00:32:46.579Z,98408.41
2023-05-13T00:35:14.377Z,98412.47
2023-05-13T00:37:41.892Z,98408.66
2023-05-13T00:40:31.111Z,98410.56
2023-05-13T00:42:58.716Z,98407.34
2023-05-13T00:45:26.256Z,98403.53
2023-05-13T00:47:53.870Z,98410.84
2023-05-13T00:50:21.756Z,98414.31
2023-05-13T00:52:51.400Z,98413.97
2023-05-13T00:55:19.036Z,98415.31
2023-05-13T00:57:46.376Z,98419.75
2023-05-13T01:00:15.040Z,98421.69
2023-05-13T01:03:14.188Z,98415.81
2023-05-13T01:06:06.334Z,98423.13
2023-05-13T01:09:18.377Z,98428.00
2023-05-13T01:11:51.502Z,98425.25
2023-05-13T01:14:33.086Z,98427.63
2023-05-13T01:17:18.288Z,98427.28
2023-05-13T01:19:56.067Z,98432.28
2023-05-13T01:22:23.922Z,98433.09
2023-05-13T01:24:51.678Z,98434.66
2023-05-13T01:27:19.290Z,98438.47
2023-05-13T01:29:47.860Z,98437.16
2023-05-13T01:32:16.771Z,98443.47
2023-05-13T01:34:45.698Z,98437.25
2023-05-13T01:37:13.704Z,98440.25
2023-05-13T01:39:42.016Z,98441.88
2023-05-13T01:42:09.707Z,98435.19
2023-05-13T01:44:37.146Z,98436.72
2023-05-13T01:47:04.794Z,98432.34
2023-05-13T01:49:32.082Z,98435.81
2023-05-13T01:51:59.582Z,98434.00
2023-05-13T01:54:26.948Z,98431.38
2023-05-13T01:57:01.708Z,98432.34
2023-05-13T01:59:29.021Z,98430.88
2023-05-13T02:01:56.716Z,98435.75
2023-05-13T02:04:24.027Z,98431.56
2023-05-13T02:06:51.530Z,98434.06
2023-05-13T02:09:18.870Z,98439.44
2023-05-13T02:11:46.827Z,98433.97
2023-05-13T02:14:14.169Z,98430.16
2023-05-13T02:16:41.768Z,98436.66
2023-05-13T02:19:11.301Z,98432.66
2023-05-13T02:21:39.040Z,98434.59
2023-05-13T02:24:06.804Z,98438.06
2023-05-13T02:26:34.329Z,98436.72
2023-05-13T02:29:01.710Z,98436.84
2023-05-13T02:31:29.500Z,98433.34
2023-05-13T02:33:56.797Z,98443.59
2023-05-13T02:36:24.418Z,98440.16
2023-05-13T02:38:52.082Z,98442.34
2023-05-13T02:41:19.793Z,98452.94
2023-05-13T02:43:47.006Z,98442.28
2023-05-13T02:46:14.604Z,98438.81
2023-05-13T02:48:41.931Z,98456.84
2023-05-13T02:51:09.729Z,98447.50
2023-05-13T02:53:37.078Z,98451.91
2023-05-13T02:56:04.947Z,98455.66
2023-05-13T02:58:32.268Z,98456.09
2023-05-13T03:00:59.930Z,98454.41
2023-05-13T03:03:27.439Z,98457.44
2023-05-13T03:05:55.007Z,98463.84
2023-05-13T03:08:40.169Z,98464.88
2023-05-13T03:11:07.695Z,98465.41
2023-05-13T03:13:34.995Z,98473.06
2023-05-13T03:16:02.602Z,98463.41
2023-05-13T03:18:32.950Z,98464.28
2023-05-13T03:21:00.766Z,98467.94
2023-05-13T03:23:28.068Z,98472.22
2023-05-13T03:25:55.731Z,98468.91
2023-05-13T03:28:23.665Z,98465.94
2023-05-13T03:30:51.846Z,98468.25
2023-05-13T03:33:19.363Z,98472.44
2023-05-13T03:35:48.635Z,98477.66
2023-05-13T03:38:16.123Z,98479.97
2023-05-13T03:40:43.860Z,98478.06
2023-05-13T03:43:11.161Z,98486.34
2023-05-13T03:45:38.769Z,98483.59
2023-05-13T03:48:06.516Z,98487.38
2023-05-13T03:50:35.009Z,98489.63
2023-05-13T03:53:02.623Z,98491.72
2023-05-13T03:55:30.326Z,98493.97
2023-05-13T03:57:59.143Z,98497.25
2023-05-13T04:00:26.725Z,98501.19
2023-05-13T04:02:54.065Z,98505.78
2023-05-13T04:05:22.397Z,98499.88
2023-05-13T04:07:49.721Z,98501.97
2023-05-13T04:10:17.865Z,98518.53
2023-05-13T04:12:45.177Z,98509.00
2023-05-13T04:15:12.727Z,98511.63
2023-05-13T04:17:40.003Z,98513.28
2023-05-13T04:20:08.501Z,98509.94
2023-05-13T04:22:36.003Z,98513.97
2023-05-13T04:25:03.747Z,98512.06
2023-05-13T04:27:31.041Z,98514.13
2023-05-13T04:29:58.601Z,98525.25
2023-05-13T04:32:25.879Z,98518.59
2023-05-13T04:34:53.673Z,98521.38
2023-05-13T04:37:21.098Z,98523.66
2023-05-13T04:39:49.148Z,98525.72
2023-05-13T04:42:17.521Z,98529.47
2023-05-13T04:44:45.423Z,98532.56
2023-05-13T04:47:12.753Z,98527.31
2023-05-13T04:49:40.343Z,98528.78
2023-05-13T04:52:08.471Z,98523.16
2023-05-13T04:54:37.842Z,98530.34
2023-05-13T04:57:06.056Z,98532.19
2023-05-13T04:59:33.734Z,98533.88
2023-05-13T05:02:01.144Z,98534.16
2023-05-13T05:04:28.680Z,98532.94
2023-05-13T05:06:56.091Z,98530.13
2023-05-13T05:09:23.693Z,98545.50
2023-05-13T05:11:51.264Z,98542.78
2023-05-13T05:14:19.154Z,98539.81
2023-05-13T05:16:47.701Z,98553.78
2023-05-13T05:19:15.429Z,98555.88
2023-05-13T05:21:42.798Z,98552.16
2023-05-13T05:24:10.384Z,98551.19
2023-05-13T05:26:37.708Z,98558.25
2023-05-13T05:29:05.200Z,98557.41
2023-05-13T05:31:32.654Z,98558.03
2023-05-13T05:34:01.763Z,98554.19
2023-05-13T05:36:32.192Z,98555.41
2023-05-13T05:38:59.756Z,98565.97
2023-05-13T05:41:27.074Z,98554.66
2023-05-13T05:43:54.641Z,98556.91
2023-05-13T05:46:23.124Z,98558.78
2023-05-13T05:48:51.001Z,98557.72
2023-05-13T05:51:18.399Z,98556.19
2023-05-13T05:53:46.044Z,98560.69
2023-05-13T05:56:13.272Z,98559.63
2023-05-13T05:58:40.897Z,98556.25
2023-05-13T06:01:08.325Z,98564.91
2023-05-13T06:03:36.122Z,98563.53
2023-05-13T06:06:04.038Z,98563.19
2023-05-13T06:08:31.656Z,98559.47
2023-05-13T06:10:59.146Z,98559.38
2023-05-13T06:13:26.957Z,98554.88
2023-05-13T06:15:54.305Z,98563.66
2023-05-13T06:18:21.997Z,98555.81
2023-05-13T06:20:49.365Z,98562.13
2023-05-13T06:23:16.966Z,98569.97
2023-05-13T06:25:44.308Z,98572.28
2023-05-13T06:28:12.359Z,98559.53
2023-05-13T06:30:39.925Z,98561.69
2023-05-13T06:33:10.592Z,98564.44
2023-05-13T06:35:38.377Z,98554.75
2023-05-13T06:38:08.779Z,98560.50
2023-05-13T06:40:36.140Z,98556.72
2023-05-13T06:43:03.642Z,98559.94
2023-05-13T06:45:30.944Z,98558.22
2023-05-13T06:48:00.625Z,98559.34
2023-05-13T06:50:28.028Z,98555.00
2023-05-13T06:52:55.709Z,98566.13
2023-05-13T06:55:22.919Z,98566.97
2023-05-13T06:57:50.825Z,98558.94
2023-05-13T07:00:18.984Z,98552.84
2023-05-13T07:02:46.795Z,98553.13
2023-05-13T07:05:14.164Z,98558.94
2023-05-13T07:07:43.478Z,98559.53
2023-05-13T07:10:12.112Z,98550.88
2023-05-13T07:12:39.726Z,98555.06
2023-05-13T07:15:07.720Z,98547.53
2023-05-13T07:17:35.465Z,98544.50
2023-05-13T07:20:02.982Z,98539.06
2023-05-13T07:22:31.916Z,98541.44
2023-05-13T07:24:59.528Z,98545.72
2023-05-13T07:27:27.169Z,98543.38
2023-05-13T07:29:54.685Z,98535.84
2023-05-13T07:32:22.294Z,98538.66
2023-05-13T07:34:49.647Z,98546.00
2023-05-13T07:37:17.752Z,98543.47
2023-05-13T07:39:44.963Z,98549.41
2023-05-13T07:42:12.568Z,98533.22
2023-05-13T07:44:40.566Z,98539.66
2023-05-13T07:47:08.181Z,98528.25
2023-05-13T07:49:35.493Z,98535.81
2023-05-13T07:52:03.090Z,98531.03
2023-05-13T07:54:30.407Z,98526.56
2023-05-13T07:56:58.035Z,98534.59
2023-05-13T07:59:25.330Z,98535.31
2023-05-13T08:01:52.980Z,98529.88
2023-05-13T08:04:20.439Z,98532.59
2023-05-13T08:06:48.165Z,98524.28
2023-05-13T08:09:15.623Z,98541.31
2023-05-13T08:11:43.307Z,98536.84
2023-05-13T08:14:10.987Z,98542.03
2023-05-13T08:16:38.601Z,98534.66
2023-05-13T08:19:06.040Z,98528.69
2023-05-13T08:21:33.649Z,98528.13
2023-05-13T08:24:00.849Z,98530.66
2023-05-13T08:26:28.943Z,98541.47
2023-05-13T08:28:57.327Z,98532.56
2023-05-13T08:31:25.598Z,98534.38
2023-05-13T08:33:53.645Z,98545.59
2023-05-13T08:36:26.063Z,98544.81
2023-05-13T08:38:53.539Z,98544.31
2023-05-13T08:41:22.960Z,98545.44
2023-05-13T08:43:54.283Z,98540.56
2023-05-13T08:46:25.411Z,98547.50
2023-05-13T08:48:55.007Z,98539.53
2023-05-13T08:51:22.747Z,98536.28
2023-05-13T08:53:52.247Z,98556.03
2023-05-13T08:56:19.913Z,98543.00
2023-05-13T08:58:47.270Z,98536.31
2023-05-13T09:01:17.112Z,98539.25
2023-05-13T09:04:01.373Z,98531.81
2023-05-13T09:06:29.796Z,98531.84
2023-05-13T09:08:57.815Z,98539.47
2023-05-13T09:11:26.469Z,98541.75
2023-05-13T09:14:03.155Z,98543.72
2023-05-13T09:16:32.739Z,98539.69
2023-05-13T09:19:04.598Z,98530.22
2023-05-13T09:21:38.133Z,98534.16
2023-05-13T09:24:21.606Z,98534.69
2023-05-13T09:26:51.791Z,98541.16
2023-05-13T09:29:31.352Z,98535.38
2023-05-13T09:32:02.381Z,98538.22
2023-05-13T09:34:31.920Z,98535.56
2023-05-13T09:37:08.375Z,98534.16
2023-05-13T09:39:42.268Z,98542.63
2023-05-13T09:42:18.364Z,98550.13
2023-05-13T09:44:47.421Z,98541.63
2023-05-13T09:47:16.628Z,98545.00
2023-05-13T09:49:53.598Z,98549.78
2023-05-13T09:52:22.605Z,98544.69
2023-05-13T09:54:50.068Z,98548.13
2023-05-13T09:57:17.619Z,98526.59
2023-05-13T09:59:44.925Z,98524.84
2023-05-13T10:02:16.008Z,98537.22
2023-05-13T10:04:43.879Z,98532.59
2023-05-13T10:07:13.278Z,98529.09
2023-05-13T10:09:43.168Z,98528.41
2023-05-13T10:12:14.836Z,98528.94
2023-05-13T10:14:44.327Z,98536.53
2023-05-13T10:17:13.488Z,98539.44
2023-05-13T10:19:41.826Z,98517.53
2023-05-13T10:22:11.727Z,98519.19
2023-05-13T10:24:40.446Z,98515.03
2023-05-13T10:27:08.624Z,98511.91
2023-05-13T10:29:39.079Z,98525.75
2023-05-13T10:32:09.792Z,98514.34
2023-05-13T10:34:39.708Z,98527.41
2023-05-13T10:37:50.349Z,98531.47
2023-05-13T10:41:15.073Z,98538.09
2023-05-13T10:43:42.814Z,98534.78
2023-05-13T10:46:13.752Z,98537.19
2023-05-13T10:48:56.306Z,98531.13
2023-05-13T10:51:26.326Z,98524.25
2023-05-13T10:53:58.019Z,98513.50
2023-05-13T10:56:29.135Z,98530.09
2023-05-13T10:59:05.643Z,98534.72
2023-05-13T11:01:43.283Z,98529.63
2023-05-13T11:04:17.442Z,98521.06
2023-05-13T11:06:47.909Z,98532.91
2023-05-13T11:09:22.322Z,98523.22
2023-05-13T11:11:59.413Z,98512.84
2023-05-13T11:14:30.343Z,98512.94
2023-05-13T11:17:04.533Z,98529.78
2023-05-13T11:19:48.390Z,98530.63
2023-05-13T11:22:24.077Z,98538.25
2023-05-13T11:25:10.585Z,98535.22
2023-05-13T11:27:47.062Z,98536.69
2023-05-13T11:30:29.409Z,98519.00
2023-05-13T11:32:58.888Z,98527.31
2023-05-13T11:35:28.332Z,98527.28
2023-05-13T11:38:00.139Z,98537.19
2023-05-13T11:40:37.161Z,98525.31
2023-05-13T11:43:06.201Z,98521.69
2023-05-13T11:45:38.666Z,98523.59
2023-05-13T11:48:23.936Z,98523.28
2023-05-13T11:51:00.837Z,98533.50
2023-05-13T11:53:28.353Z,98513.56
2023-05-13T11:55:56.167Z,98530.91
2023-05-13T11:58:23.523Z,98546.59
2023-05-13T12:00:52.026Z,98541.66
2023-05-13T12:03:19.611Z,98541.56
2023-05-13T12:05:47.821Z,98531.53
2023-05-13T12:08:15.218Z,98532.91
2023-05-13T12:10:45.788Z,98532.84
2023-05-13T12:13:13.888Z,98527.47
2023-05-13T12:15:42.539Z,98540.56
2023-05-13T12:18:10.301Z,98536.22
2023-05-13T12:20:38.679Z,98534.91
2023-05-13T12:23:07.420Z,98524.38
2023-05-13T12:25:53.670Z,98516.16
2023-05-13T12:28:26.494Z,98534.03
2023-05-13T12:31:01.423Z,98532.44
2023-05-13T12:33:40.710Z,98532.88
2023-05-13T12:36:24.309Z,98529.75
2023-05-13T12:39:01.618Z,98525.72
2023-05-13T12:41:41.178Z,98523.03
2023-05-13T12:44:16.522Z,98531.53
2023-05-13T12:46:57.210Z,98538.19
2023-05-13T12:49:25.201Z,98525.72
2023-05-13T12:51:52.738Z,98531.00
2023-05-13T12:54:19.984Z,98524.53
2023-05-13T12:56:48.567Z,98530.84
2023-05-13T12:59:16.896Z,98536.47
2023-05-13T13:01:48.210Z,98527.97
2023-05-13T13:04:17.067Z,98529.81
2023-05-13T13:06:46.326Z,98528.03
2023-05-13T13:09:13.599Z,98528.81
2023-05-13T13:11:41.214Z,98517.47
2023-05-13T13:14:08.524Z,98523.16
2023-05-13T13:16:43.732Z,98530.78
2023-05-13T13:19:12.410Z,98523.81
2023-05-13T13:21:42.973Z,98514.00
2023-05-13T13:24:10.257Z,98515.94
2023-05-13T13:26:37.994Z,98515.91
2023-05-13T13:29:05.366Z,98504.69
2023-05-13T13:31:33.851Z,98516.00
2023-05-13T13:34:04.491Z,98510.44
2023-05-13T13:36:32.864Z,98506.84
2023-05-13T13:39:00.195Z,98502.22
2023-05-13T13:41:28.116Z,98504.75
2023-05-13T13:43:55.446Z,98510.91
2023-05-13T13:46:23.080Z,98509.25
2023-05-13T13:48:50.354Z,98505.75
2023-05-13T13:51:19.256Z,98501.28
2023-05-13T13:53:46.587Z,98504.59
2023-05-13T13:56:14.429Z,98513.50
2023-05-13T13:58:41.740Z,98512.22
2023-05-13T14:01:09.373Z,98508.91
2023-05-13T14:03:36.734Z,98504.41
2023-05-13T14:06:07.781Z,98510.50
2023-05-13T14:08:35.046Z,98511.34
2023-05-13T14:11:02.634Z,98511.94
2023-05-13T14:13:31.162Z,98512.63
2023-05-13T14:15:58.888Z,98510.97
2023-05-13T14:18:26.253Z,98511.91
2023-05-13T14:20:53.884Z,98515.84
2023-05-13T14:23:21.327Z,98516.13
2023-05-13T14:25:48.930Z,98514.66
2023-05-13T14:28:24.423Z,98512.97
2023-05-13T14:30:52.711Z,98517.84
2023-05-13T14:33:19.946Z,98511.00
2023-05-13T14:35:47.438Z,98519.47
2023-05-13T14:38:14.792Z,98509.31
2023-05-13T14:40:42.561Z,98528.13
2023-05-13T14:43:09.956Z,98513.22
2023-05-13T14:45:37.661Z,98518.59
2023-05-13T14:48:05.058Z,98515.31
2023-05-13T14:50:32.941Z,98514.66
2023-05-13T14:53:00.221Z,98517.63
2023-05-13T14:55:27.784Z,98515.84
2023-05-13T14:57:55.369Z,98513.03
2023-05-13T15:00:23.249Z,98517.34
2023-05-13T15:02:50.934Z,98519.28
2023-05-13T15:05:19.353Z,98512.22
2023-05-13T15:07:46.782Z,98520.31
2023-05-13T15:10:14.419Z,98519.38
2023-05-13T15:12:41.837Z,98518.09
2023-05-13T15:15:10.591Z,98514.56
2023-05-13T15:17:38.056Z,98520.44
2023-05-13T15:20:06.863Z,98513.97
2023-05-13T15:22:34.447Z,98514.81
2023-05-13T15:25:02.048Z,98511.28
2023-05-13T15:27:29.382Z,98516.59
2023-05-13T15:29:57.058Z,98517.06
2023-05-13T15:32:24.504Z,98517.13
2023-05-13T15:34:52.090Z,98519.59
2023-05-13T15:37:19.462Z,98515.38
2023-05-13T15:39:47.119Z,98510.44
2023-05-13T15:42:14.459Z,98515.53
2023-05-13T15:44:42.077Z,98516.78
2023-05-13T15:47:15.957Z,98507.00
2023-05-13T15:49:43.629Z,98500.66
2023-05-13T15:52:11.069Z,98512.25
2023-05-13T15:54:38.749Z,98490.13
2023-05-13T15:57:06.184Z,98502.03
2023-05-13T15:59:33.831Z,98509.69
2023-05-13T16:02:01.236Z,98503.81
2023-05-13T16:04:28.896Z,98511.69
2023-05-13T16:06:56.205Z,98506.84
2023-05-13T16:09:26.109Z,98506.16
2023-05-13T16:11:54.765Z,98499.59
2023-05-13T16:14:22.381Z,98510.09
2023-05-13T16:16:49.952Z,98511.34
2023-05-13T16:19:17.647Z,98496.03
2023-05-13T16:21:45.019Z,98504.38
2023-05-13T16:24:12.714Z,98499.91
2023-05-13T16:26:40.028Z,98501.34
2023-05-13T16:29:07.872Z,98501.72
2023-05-13T16:31:35.281Z,98493.63
2023-05-13T16:34:03.297Z,98495.91
2023-05-13T16:36:30.780Z,98500.47
2023-05-13T16:38:59.070Z,98499.72
2023-05-13T16:41:29.286Z,98490.25
2023-05-13T16:43:56.860Z,98495.25
2023-05-13T16:46:24.204Z,98498.03
2023-05-13T16:48:53.752Z,98491.81
2023-05-13T16:51:21.370Z,98488.09
2023-05-13T16:53:49.006Z,98492.75
2023-05-13T16:56:16.704Z,98500.03
2023-05-13T16:58:44.347Z,98493.34
2023-05-13T17:01:11.657Z,98489.50
2023-05-13T17:03:41.069Z,98482.44
2023-05-13T17:06:08.590Z,98490.50
2023-05-13T17:08:36.412Z,98488.31
2023-05-13T17:11:04.289Z,98494.66
2023-05-13T17:13:33.247Z,98495.34
2023-05-13T17:16:00.794Z,98496.34
2023-05-13T17:18:29.572Z,98502.34
2023-05-13T17:20:57.443Z,98493.44
2023-05-13T17:23:25.035Z,98492.47
2023-05-13T17:25:52.505Z,98488.44
2023-05-13T17:28:20.065Z,98490.53
2023-05-13T17:30:47.878Z,98493.47
2023-05-13T17:33:15.924Z,98497.09
2023-05-13T17:35:43.782Z,98493.88
2023-05-13T17:38:13.721Z,98501.63
2023-05-13T17:40:41.156Z,98503.44
2023-05-13T17:43:08.783Z,98499.28
2023-05-13T17:45:36.227Z,98504.81
2023-05-13T17:48:04.437Z,98498.00
2023-05-13T17:50:32.168Z,98497.63
2023-05-13T17:53:00.916Z,98495.50
2023-05-13T17:55:28.229Z,98502.75
2023-05-13T17:57:55.858Z,98506.59
2023-05-13T18:00:26.034Z,98499.19
2023-05-13T18:02:54.191Z,98497.69
2023-05-13T18:05:22.208Z,98503.47
2023-05-13T18:07:50.149Z,98511.69
2023-05-13T18:10:20.049Z,98506.00
2023-05-13T18:12:47.888Z,98507.47
2023-05-13T18:15:15.444Z,98511.34
2023-05-13T18:17:43.249Z,98513.69
2023-05-13T18:20:11.363Z,98514.03
2023-05-13T18:22:39.195Z,98511.69
2023-05-13T18:25:07.866Z,98515.53
2023-05-13T18:27:36.120Z,98516.91
2023-05-13T18:30:03.833Z,98517.59
2023-05-13T18:32:31.616Z,98518.97
2023-05-13T18:35:00.360Z,98523.22
2023-05-13T18:37:28.036Z,98523.53
2023-05-13T18:39:57.219Z,98532.22
2023-05-13T18:42:26.248Z,98533.06
2023-05-13T18:44:54.724Z,98528.44
2023-05-13T18:47:22.560Z,98527.53
2023-05-13T18:49:50.077Z,98534.16
2023-05-13T18:52:17.743Z,98535.84
2023-05-13T18:54:45.078Z,98533.13
2023-05-13T18:57:12.705Z,98537.06
2023-05-13T18:59:40.267Z,98534.78
2023-05-13T19:02:08.434Z,98542.81
2023-05-13T19:04:39.154Z,98541.41
2023-05-13T19:07:07.008Z,98538.31
2023-05-13T19:09:36.060Z,98541.91
2023-05-13T19:12:04.002Z,98544.81
2023-05-13T19:14:31.371Z,98543.38
2023-05-13T19:16:59.276Z,98543.63
2023-05-13T19:19:26.680Z,98544.81
2023-05-13T19:21:54.369Z,98540.63
2023-05-13T19:24:21.723Z,98546.00
2023-05-13T19:26:49.939Z,98543.66
2023-05-13T19:29:17.349Z,98546.75
2023-05-13T19:31:45.288Z,98559.22
2023-05-13T19:34:12.574Z,98555.63
2023-05-13T19:36:40.399Z,98545.44
2023-05-13T19:39:08.313Z,98557.91
2023-05-13T19:41:36.175Z,98561.63
2023-05-13T19:44:03.645Z,98559.47
2023-05-13T19:46:31.958Z,98560.69
2023-05-13T19:48:59.364Z,98556.88
2023-05-13T19:51:27.025Z,98562.97
2023-05-13T19:53:54.387Z,98562.38
2023-05-13T19:56:23.189Z,98562.84
2023-05-13T19:58:50.655Z,98560.47
2023-05-13T20:01:18.601Z,98567.28
2023-05-13T20:03:46.257Z,98555.44
2023-05-13T20:06:14.608Z,98564.31
2023-05-13T20:08:42.171Z,98558.34
2023-05-13T20:11:09.858Z,98553.78
2023-05-13T20:13:37.227Z,98546.03
2023-05-13T20:16:04.896Z,98554.03
2023-05-13T20:18:36.419Z,98553.78
2023-05-13T20:21:04.556Z,98549.25
2023-05-13T20:23:32.470Z,98551.88
2023-05-13T20:26:00.144Z,98551.16
2023-05-13T20:28:27.525Z,98548.53
2023-05-13T20:30:55.796Z,98540.41
2023-05-13T20:33:23.283Z,98540.13
2023-05-13T20:35:50.908Z,98539.28
2023-05-13T20:38:18.404Z,98543.84
2023-05-13T20:40:46.391Z,98536.34
2023-05-13T20:43:16.912Z,98537.03
2023-05-13T20:45:44.738Z,98533.66
2023-05-13T20:48:13.914Z,98535.06
2023-05-13T20:50:41.678Z,98536.13
2023-05-13T20:53:09.064Z,98538.50
2023-05-13T20:55:36.596Z,98535.66
2023-05-13T20:58:03.864Z,98539.81
2023-05-13T21:00:31.515Z,98536.44
2023-05-13T21:02:58.922Z,98542.53
2023-05-13T21:05:26.727Z,98538.59
2023-05-13T21:07:54.149Z,98532.63
2023-05-13T21:10:22.206Z,98521.97
2023-05-13T21:12:49.740Z,98526.59
2023-05-13T21:15:17.332Z,98521.47
2023-05-13T21:17:44.840Z,98523.38
2023-05-13T21:20:13.179Z,98525.88
2023-05-13T21:22:40.508Z,98520.63
2023-05-13T21:25:09.090Z,98516.81
2023-05-13T21:27:36.346Z,98528.25
2023-05-13T21:30:05.654Z,98515.28
2023-05-13T21:32:33.511Z,98521.38
2023-05-13T21:35:01.160Z,98517.47
2023-05-13T21:37:28.482Z,98522.59
2023-05-13T21:39:57.415Z,98521.88
2023-05-13T21:42:24.676Z,98525.28
2023-05-13T21:44:52.271Z,98519.41
2023-05-13T21:47:19.660Z,98520.53
2023-05-13T21:49:48.533Z,98519.78
2023-05-13T21:52:17.495Z,98511.06
2023-05-13T21:54:45.156Z,98518.53
2023-05-13T21:57:12.435Z,98525.16
2023-05-13T21:59:40.061Z,98517.97
2023-05-13T22:02:08.064Z,98511.97
2023-05-13T22:04:35.954Z,98515.84
2023-05-13T22:07:03.472Z,98510.19
2023-05-13T22:09:31.537Z,98511.56
2023-05-13T22:11:58.919Z,98507.44
2023-05-13T22:14:26.514Z,98508.03
2023-05-13T22:17:07.946Z,98505.94
2023-05-13T22:19:37.559Z,98511.69
2023-05-13T22:22:05.328Z,98506.59
2023-05-13T22:24:32.858Z,98510.25
2023-05-13T22:27:00.486Z,98504.69
2023-05-13T22:29:28.436Z,98502.72
2023-05-13T22:31:57.549Z,98498.59
2023-05-13T22:34:26.891Z,98499.63
2023-05-13T22:36:54.546Z,98505.41
2023-05-13T22:39:22.271Z,98504.22
2023-05-13T22:41:49.619Z,98502.44
2023-05-13T22:44:17.345Z,98495.22
2023-05-13T22:46:44.704Z,98499.63
2023-05-13T22:49:12.449Z,98504.97
2023-05-13T22:51:39.755Z,98507.38
2023-05-13T22:54:07.578Z,98511.16
2023-05-13T22:56:34.812Z,98496.38
2023-05-13T22:59:02.386Z,98501.31
2023-05-13T23:01:31.175Z,98498.16
2023-05-13T23:03:58.856Z,98495.03
2023-05-13T23:06:27.141Z,98498.34
2023-05-13T23:08:54.764Z,98494.88
2023-05-13T23:11:23.381Z,98491.66
2023-05-13T23:13:51.104Z,98498.69
2023-05-13T23:16:19.503Z,98493.97
2023-05-13T23:18:47.194Z,98487.69
2023-05-13T23:21:14.552Z,98481.22
2023-05-13T23:23:42.200Z,98486.88
2023-05-13T23:26:15.910Z,98484.47
2023-05-13T23:28:43.509Z,98488.78
2023-05-13T23:31:10.994Z,98482.91
2023-05-13T23:33:38.578Z,98484.16
2023-05-13T23:36:06.419Z,98479.75
2023-05-13T23:38:34.680Z,98473.72
2023-05-13T23:41:01.959Z,98483.13
2023-05-13T23:43:29.498Z,98474.88
2023-05-13T23:45:56.842Z,98471.72
2023-05-13T23:48:28.550Z,98477.34
2023-05-13T23:50:55.947Z,98473.44
2023-05-13T23:53:23.632Z,98463.94
2023-05-13T23:55:50.990Z,98466.63
2023-05-13T23:58:18.844Z,98463.06
